sensor_id;sensor_type;location;lat;lon;timestamp;pressure;altitude;pressure_sealevel;temperature;humidity
48800;BME280;34611;47.964;7.982;2023-03-21T00:05:09;97007.09;;;10.53;62.04
48800;BME280;34611;47.964;7.982;2023-03-21T00:12:09;97004.50;;;10.53;62.16
48800;BME280;34611;47.964;7.982;2023-03-21T00:19:10;96998.34;;;10.55;62.08
48800;BME280;34611;47.964;7.982;2023-03-21T00:26:12;97000.97;;;10.55;62.01
48800;BME280;34611;47.964;7.982;2023-03-21T00:33:13;96998.34;;;10.55;62.12
48800;BME280;34611;47.964;7.982;2023-03-21T00:40:14;97001.78;;;10.55;62.01
48800;BME280;34611;47.964;7.982;2023-03-21T00:47:14;96982.88;;;10.53;62.01
48800;BME280;34611;47.964;7.982;2023-03-21T00:54:14;96993.16;;;10.55;62.26
48800;BME280;34611;47.964;7.982;2023-03-21T01:01:15;96987.97;;;10.55;61.96
48800;BME280;34611;47.964;7.982;2023-03-21T01:08:16;96981.09;;;10.53;62.07
48800;BME280;34611;47.964;7.982;2023-03-21T01:15:17;96975.91;;;10.53;62.01
48800;BME280;34611;47.964;7.982;2023-03-21T01:22:18;96977.56;;;10.55;61.95
48800;BME280;34611;47.964;7.982;2023-03-21T01:29:18;96966.31;;;10.54;62.00
48800;BME280;34611;47.964;7.982;2023-03-21T01:36:20;96965.50;;;10.53;61.99
48800;BME280;34611;47.964;7.982;2023-03-21T01:50:23;96960.19;;;10.55;62.15
48800;BME280;34611;47.964;7.982;2023-03-21T01:57:50;96958.53;;;10.54;62.11
48800;BME280;34611;47.964;7.982;2023-03-21T02:04:53;96951.56;;;10.55;62.17
48800;BME280;34611;47.964;7.982;2023-03-21T02:11:59;96942.81;;;10.56;62.07
48800;BME280;34611;47.964;7.982;2023-03-21T02:33:40;96932.41;;;10.56;62.19
48800;BME280;34611;47.964;7.982;2023-03-21T02:40:51;96937.59;;;10.56;62.08
48800;BME280;34611;47.964;7.982;2023-03-21T02:47:56;96933.38;;;10.55;62.05
48800;BME280;34611;47.964;7.982;2023-03-21T02:54:59;96925.59;;;10.55;62.25
48800;BME280;34611;47.964;7.982;2023-03-21T03:02:08;96915.19;;;10.55;62.15
48800;BME280;34611;47.964;7.982;2023-03-21T03:09:23;96915.19;;;10.55;62.10
48800;BME280;34611;47.964;7.982;2023-03-21T03:16:42;96912.69;;;10.53;62.16
48800;BME280;34611;47.964;7.982;2023-03-21T03:23:52;96904.78;;;10.55;62.28
48800;BME280;34611;47.964;7.982;2023-03-21T03:30:54;96902.19;;;10.55;62.30
48800;BME280;34611;47.964;7.982;2023-03-21T03:38:00;96903.00;;;10.55;62.17
48800;BME280;34611;47.964;7.982;2023-03-21T03:45:04;96895.31;;;10.53;62.20
48800;BME280;34611;47.964;7.982;2023-03-21T03:52:10;96889.19;;;10.55;62.35
48800;BME280;34611;47.964;7.982;2023-03-21T03:59:19;96894.38;;;10.55;62.39
48800;BME280;34611;47.964;7.982;2023-03-21T04:07:04;96898.75;;;10.54;62.18
48800;BME280;34611;47.964;7.982;2023-03-21T04:14:05;96891.78;;;10.55;62.16
48800;BME280;34611;47.964;7.982;2023-03-21T04:21:07;96893.44;;;10.56;62.16
48800;BME280;34611;47.964;7.982;2023-03-21T04:28:08;96903.13;;;10.53;62.33
48800;BME280;34611;47.964;7.982;2023-03-21T04:35:16;96888.34;;;10.54;62.25
48800;BME280;34611;47.964;7.982;2023-03-21T04:42:16;96893.53;;;10.54;62.27
48800;BME280;34611;47.964;7.982;2023-03-21T04:49:17;96889.19;;;10.55;62.31
48800;BME280;34611;47.964;7.982;2023-03-21T04:56:18;96881.41;;;10.55;62.18
48800;BME280;34611;47.964;7.982;2023-03-21T05:03:18;96875.34;;;10.54;62.24
48800;BME280;34611;47.964;7.982;2023-03-21T05:10:21;96879.63;;;10.55;62.20
48800;BME280;34611;47.964;7.982;2023-03-21T05:17:22;96887.53;;;10.53;62.24
48800;BME280;34611;47.964;7.982;2023-03-21T05:24:24;96889.19;;;10.55;62.27
48800;BME280;34611;47.964;7.982;2023-03-21T05:31:26;96884.00;;;10.55;62.17
48800;BME280;34611;47.964;7.982;2023-03-21T05:38:37;96883.16;;;10.54;62.16
48800;BME280;34611;47.964;7.982;2023-03-21T05:45:42;96881.41;;;10.55;62.27
48800;BME280;34611;47.964;7.982;2023-03-21T05:52:43;96884.00;;;10.55;62.40
48800;BME280;34611;47.964;7.982;2023-03-21T05:59:47;96884.00;;;10.55;62.16
48800;BME280;34611;47.964;7.982;2023-03-21T06:06:47;96877.94;;;10.54;62.25
48800;BME280;34611;47.964;7.982;2023-03-21T06:13:48;96872.75;;;10.54;62.31
48800;BME280;34611;47.964;7.982;2023-03-21T06:20:49;96875.22;;;10.56;62.42
48800;BME280;34611;47.964;7.982;2023-03-21T06:27:49;96870.03;;;10.56;62.23
48800;BME280;34611;47.964;7.982;2023-03-21T06:34:51;96862.22;;;10.56;62.47
48800;BME280;34611;47.964;7.982;2023-03-21T06:41:51;96867.44;;;10.56;62.47
48800;BME280;34611;47.964;7.982;2023-03-21T06:48:52;96865.81;;;10.55;62.36
48800;BME280;34611;47.964;7.982;2023-03-21T06:55:52;96864.00;;;10.55;62.30
48800;BME280;34611;47.964;7.982;2023-03-21T07:02:53;96862.22;;;10.56;62.42
48800;BME280;34611;47.964;7.982;2023-03-21T07:09:57;96847.59;;;10.55;62.36
48800;BME280;34611;47.964;7.982;2023-03-21T07:16:59;96843.22;;;10.55;62.35
48800;BME280;34611;47.964;7.982;2023-03-21T07:23:59;96842.41;;;10.55;62.47
48800;BME280;34611;47.964;7.982;2023-03-21T07:31:01;96835.44;;;10.55;62.30
48800;BME280;34611;47.964;7.982;2023-03-21T07:38:03;96829.41;;;10.55;62.42
48800;BME280;34611;47.964;7.982;2023-03-21T07:45:04;96828.44;;;10.56;62.34
48800;BME280;34611;47.964;7.982;2023-03-21T07:52:07;96833.63;;;10.56;62.32
48800;BME280;34611;47.964;7.982;2023-03-21T07:59:07;96829.41;;;10.55;62.39
48800;BME280;34611;47.964;7.982;2023-03-21T08:06:07;96828.44;;;10.56;62.25
48800;BME280;34611;47.964;7.982;2023-03-21T08:13:08;96836.25;;;10.56;62.49
48800;BME280;34611;47.964;7.982;2023-03-21T08:20:09;96829.25;;;10.56;62.35
48800;BME280;34611;47.964;7.982;2023-03-21T08:27:11;96842.25;;;10.56;62.52
48800;BME280;34611;47.964;7.982;2023-03-21T08:34:11;96850.91;;;10.57;62.46
48800;BME280;34611;47.964;7.982;2023-03-21T08:41:13;96853.63;;;10.55;62.45
48800;BME280;34611;47.964;7.982;2023-03-21T08:48:13;96849.25;;;10.56;62.66
48800;BME280;34611;47.964;7.982;2023-03-21T08:55:14;96856.09;;;10.57;62.52
48800;BME280;34611;47.964;7.982;2023-03-21T09:02:15;96852.66;;;10.56;62.46
48800;BME280;34611;47.964;7.982;2023-03-21T09:09:16;96850.06;;;10.56;62.33
48800;BME280;34611;47.964;7.982;2023-03-21T09:16:17;96853.63;;;10.55;62.59
48800;BME280;34611;47.964;7.982;2023-03-21T09:23:17;96853.63;;;10.55;62.56
48800;BME280;34611;47.964;7.982;2023-03-21T09:30:18;96846.63;;;10.56;62.75
48800;BME280;34611;47.964;7.982;2023-03-21T09:37:20;96842.25;;;10.56;62.57
48800;BME280;34611;47.964;7.982;2023-03-21T09:44:26;96836.13;;;10.57;62.54
48800;BME280;34611;47.964;7.982;2023-03-21T09:51:32;96833.53;;;10.57;62.47
48800;BME280;34611;47.964;7.982;2023-03-21T09:58:42;96837.91;;;10.57;62.62
48800;BME280;34611;47.964;7.982;2023-03-21T10:05:43;96842.00;;;10.59;62.41
48800;BME280;34611;47.964;7.982;2023-03-21T10:12:45;96838.78;;;10.67;63.53
48800;BME280;34611;47.964;7.982;2023-03-21T10:19:48;96833.25;;;10.60;63.54
48800;BME280;34611;47.964;7.982;2023-03-21T10:26:54;96838.31;;;10.62;63.20
48800;BME280;34611;47.964;7.982;2023-03-21T10:33:56;96830.53;;;10.62;63.14
48800;BME280;34611;47.964;7.982;2023-03-21T10:40:57;96815.75;;;10.62;63.35
48800;BME280;34611;47.964;7.982;2023-03-21T10:47:57;96806.31;;;10.61;63.03
48800;BME280;34611;47.964;7.982;2023-03-21T10:55:11;96808.09;;;10.61;63.22
48800;BME280;34611;47.964;7.982;2023-03-21T11:02:20;96798.53;;;10.61;62.99
48800;BME280;34611;47.964;7.982;2023-03-21T11:09:24;96801.13;;;10.61;62.98
48800;BME280;34611;47.964;7.982;2023-03-21T11:16:29;96791.53;;;10.62;62.93
48800;BME280;34611;47.964;7.982;2023-03-21T11:23:30;96786.34;;;10.62;63.20
48800;BME280;34611;47.964;7.982;2023-03-21T11:30:31;96783.72;;;10.62;63.08
48800;BME280;34611;47.964;7.982;2023-03-21T11:37:33;96774.31;;;10.61;63.01
48800;BME280;34611;47.964;7.982;2023-03-21T11:44:40;96764.72;;;10.61;63.03
48800;BME280;34611;47.964;7.982;2023-03-21T11:51:47;96752.53;;;10.62;63.00
48800;BME280;34611;47.964;7.982;2023-03-21T11:59:03;96743.13;;;10.61;63.00
48800;BME280;34611;47.964;7.982;2023-03-21T12:06:12;96743.81;;;10.63;63.10
48800;BME280;34611;47.964;7.982;2023-03-21T12:41:44;96723.13;;;10.61;63.31
48800;BME280;34611;47.964;7.982;2023-03-21T12:48:54;96713.56;;;10.62;63.18
48800;BME280;34611;47.964;7.982;2023-03-21T12:55:57;96713.56;;;10.62;63.14
48800;BME280;34611;47.964;7.982;2023-03-21T13:10:03;96694.41;;;10.63;63.34
48800;BME280;34611;47.964;7.982;2023-03-21T13:17:26;96688.38;;;10.62;63.25
48800;BME280;34611;47.964;7.982;2023-03-21T13:31:31;96680.56;;;10.62;63.19
48800;BME280;34611;47.964;7.982;2023-03-21T13:38:33;96671.97;;;10.62;63.32
48800;BME280;34611;47.964;7.982;2023-03-21T13:45:43;96667.56;;;10.62;63.18
48800;BME280;34611;47.964;7.982;2023-03-21T14:00:14;96653.63;;;10.63;63.38
48800;BME280;34611;47.964;7.982;2023-03-21T14:07:19;96658.84;;;10.63;63.35
48800;BME280;34611;47.964;7.982;2023-03-21T14:14:21;96658.03;;;10.63;63.40
48800;BME280;34611;47.964;7.982;2023-03-21T14:21:27;96673.47;;;10.64;63.27
48800;BME280;34611;47.964;7.982;2023-03-21T14:28:29;96658.03;;;10.63;63.27
48800;BME280;34611;47.964;7.982;2023-03-21T14:35:32;96654.44;;;10.64;63.31
48800;BME280;34611;47.964;7.982;2023-03-21T14:42:33;96644.19;;;10.62;63.51
48800;BME280;34611;47.964;7.982;2023-03-21T14:49:35;96632.03;;;10.63;63.39
48800;BME280;34611;47.964;7.982;2023-03-21T14:56:35;96641.47;;;10.64;63.46
48800;BME280;34611;47.964;7.982;2023-03-21T15:03:37;96638.03;;;10.63;63.35
48800;BME280;34611;47.964;7.982;2023-03-21T15:10:38;96643.25;;;10.63;63.28
48800;BME280;34611;47.964;7.982;2023-03-21T15:17:38;96631.19;;;10.62;63.35
48800;BME280;34611;47.964;7.982;2023-03-21T15:24:39;96632.03;;;10.63;63.56
48800;BME280;34611;47.964;7.982;2023-03-21T15:31:41;96618.06;;;10.64;63.30
48800;BME280;34611;47.964;7.982;2023-03-21T15:38:42;96616.44;;;10.63;63.34
48800;BME280;34611;47.964;7.982;2023-03-21T15:45:45;96623.25;;;10.64;63.34
48800;BME280;34611;47.964;7.982;2023-03-21T15:52:47;96618.06;;;10.64;63.45
48800;BME280;34611;47.964;7.982;2023-03-21T15:59:50;96621.47;;;10.64;63.51
48800;BME280;34611;47.964;7.982;2023-03-21T16:13:57;96624.91;;;10.65;63.73
48800;BME280;34611;47.964;7.982;2023-03-21T16:20:57;96623.25;;;10.64;63.37
48800;BME280;34611;47.964;7.982;2023-03-21T16:27:58;96635.31;;;10.65;63.36
48800;BME280;34611;47.964;7.982;2023-03-21T16:34:59;96646.66;;;10.64;63.51
48800;BME280;34611;47.964;7.982;2023-03-21T16:41:59;96644.06;;;10.64;63.40
48800;BME280;34611;47.964;7.982;2023-03-21T16:48:59;96653.50;;;10.65;63.35
48800;BME280;34611;47.964;7.982;2023-03-21T16:56:00;96649.13;;;10.65;63.43
48800;BME280;34611;47.964;7.982;2023-03-21T17:03:04;96653.09;;;10.69;63.99
48800;BME280;34611;47.964;7.982;2023-03-21T17:10:14;96655.84;;;10.68;64.05
48800;BME280;34611;47.964;7.982;2023-03-21T17:17:15;96646.25;;;10.68;63.88
48800;BME280;34611;47.964;7.982;2023-03-21T17:24:16;96661.84;;;10.68;63.98
48800;BME280;34611;47.964;7.982;2023-03-21T17:31:18;96661.03;;;10.68;64.11
48800;BME280;34611;47.964;7.982;2023-03-21T17:38:18;96660.22;;;10.67;63.75
48800;BME280;34611;47.964;7.982;2023-03-21T17:45:19;96665.28;;;10.69;63.99
48800;BME280;34611;47.964;7.982;2023-03-21T17:52:19;96666.22;;;10.68;63.73
48800;BME280;34611;47.964;7.982;2023-03-21T17:59:19;96663.63;;;10.68;63.91
48800;BME280;34611;47.964;7.982;2023-03-21T18:06:20;96660.09;;;10.69;63.87
48800;BME280;34611;47.964;7.982;2023-03-21T18:13:20;96667.88;;;10.69;63.91
48800;BME280;34611;47.964;7.982;2023-03-21T18:20:22;96660.91;;;10.69;63.69
48800;BME280;34611;47.964;7.982;2023-03-21T18:27:22;96660.91;;;10.69;63.63
48800;BME280;34611;47.964;7.982;2023-03-21T18:34:22;96660.09;;;10.69;63.77
48800;BME280;34611;47.964;7.982;2023-03-21T18:41:23;96667.03;;;10.68;63.91
48800;BME280;34611;47.964;7.982;2023-03-21T18:48:23;96666.22;;;10.68;63.73
48800;BME280;34611;47.964;7.982;2023-03-21T18:55:23;96662.81;;;10.67;63.93
48800;BME280;34611;47.964;7.982;2023-03-21T19:02:24;96661.84;;;10.68;63.74
48800;BME280;34611;47.964;7.982;2023-03-21T19:09:24;96668.81;;;10.68;63.72
48800;BME280;34611;47.964;7.982;2023-03-21T19:16:25;96661.84;;;10.68;63.74
48800;BME280;34611;47.964;7.982;2023-03-21T19:23:25;96647.09;;;10.69;63.89
48800;BME280;34611;47.964;7.982;2023-03-21T19:30:26;96651.44;;;10.68;63.72
48800;BME280;34611;47.964;7.982;2023-03-21T19:37:26;96629.28;;;10.74;63.60
48800;BME280;34611;47.964;7.982;2023-03-21T19:44:27;96644.50;;;10.69;63.95
48800;BME280;34611;47.964;7.982;2023-03-21T19:51:28;96666.22;;;10.68;63.79
48800;BME280;34611;47.964;7.982;2023-03-21T19:58:28;96659.25;;;10.68;63.78
48800;BME280;34611;47.964;7.982;2023-03-21T20:05:28;96667.03;;;10.68;63.94
48800;BME280;34611;47.964;7.982;2023-03-21T20:12:28;96674.03;;;10.68;63.81
48800;BME280;34611;47.964;7.982;2023-03-21T20:19:31;96668.00;;;10.67;63.82
48800;BME280;34611;47.964;7.982;2023-03-21T20:26:31;96666.22;;;10.68;63.67
48800;BME280;34611;47.964;7.982;2023-03-21T20:33:32;96679.22;;;10.68;63.71
48800;BME280;34611;47.964;7.982;2023-03-21T20:40:32;96681.81;;;10.68;63.66
48800;BME280;34611;47.964;7.982;2023-03-21T20:47:33;96697.44;;;10.68;63.79
48800;BME280;34611;47.964;7.982;2023-03-21T20:54:33;96705.22;;;10.68;63.69
48800;BME280;34611;47.964;7.982;2023-03-21T21:01:34;96710.41;;;10.68;63.72
48800;BME280;34611;47.964;7.982;2023-03-21T21:08:34;96718.22;;;10.68;63.69
48800;BME280;34611;47.964;7.982;2023-03-21T21:15:34;96723.41;;;10.68;63.60
48800;BME280;34611;47.964;7.982;2023-03-21T21:22:36;96720.00;;;10.67;63.65
48800;BME280;34611;47.964;7.982;2023-03-21T21:29:36;96728.63;;;10.68;63.60
48800;BME280;34611;47.964;7.982;2023-03-21T21:36:36;96718.22;;;10.68;63.82
48800;BME280;34611;47.964;7.982;2023-03-21T21:43:37;96726.03;;;10.68;63.67
48800;BME280;34611;47.964;7.982;2023-03-21T21:50:37;96718.22;;;10.68;63.69
48800;BME280;34611;47.964;7.982;2023-03-21T21:57:38;96726.84;;;10.68;63.74
48800;BME280;34611;47.964;7.982;2023-03-21T22:04:39;96713.03;;;10.68;63.64
48800;BME280;34611;47.964;7.982;2023-03-21T22:11:39;96701.00;;;10.67;63.66
48800;BME280;34611;47.964;7.982;2023-03-21T22:18:39;96694.00;;;10.67;63.57
48800;BME280;34611;47.964;7.982;2023-03-21T22:25:47;96695.78;;;10.67;63.71
48800;BME280;34611;47.964;7.982;2023-03-21T22:32:47;96697.44;;;10.68;63.50
48800;BME280;34611;47.964;7.982;2023-03-21T22:39:47;96683.50;;;10.69;63.82
48800;BME280;34611;47.964;7.982;2023-03-21T22:46:48;96681.81;;;10.68;63.56
48800;BME280;34611;47.964;7.982;2023-03-21T22:53:48;96676.63;;;10.68;63.76
48800;BME280;34611;47.964;7.982;2023-03-21T23:00:48;96676.63;;;10.68;63.96
48800;BME280;34611;47.964;7.982;2023-03-21T23:07:48;96685.25;;;10.68;63.61
48800;BME280;34611;47.964;7.982;2023-03-21T23:14:49;96693.03;;;10.68;63.63
48800;BME280;34611;47.964;7.982;2023-03-21T23:21:49;96696.59;;;10.67;63.58
48800;BME280;34611;47.964;7.982;2023-03-21T23:28:49;96700.84;;;10.68;63.63
48800;BME280;34611;47.964;7.982;2023-03-21T23:35:49;96701.81;;;10.67;63.66
48800;BME280;34611;47.964;7.982;2023-03-21T23:42:50;96712.09;;;10.69;63.58
48800;BME280;34611;47.964;7.982;2023-03-21T23:49:50;96708.63;;;10.68;63.50
48800;BME280;34611;47.964;7.982;2023-03-21T23:56:51;96691.41;;;10.67;63.78
